Time;durP1;ratioP1;P1;durP2;ratioP2;P2;SDS_P1;SDS_P2;PMS_P1;PMS_P2;Temp;Humidity;BMP_temperature;BMP_pressure;BME280_temperature;BME280_humidity;BME280_pressure;Samples;Min_cycle;Max_cycle;Signal;HPM_P1;HPM_P2
2021/03/25 00:00:24;;;;;;;8.35;4.13;;;;;;;9.32;50.65;97602.63;5022492;28;20351;-79
2021/03/25 00:02:50;;;;;;;7.70;4.53;;;;;;;9.41;50.76;97597.88;5038778;28;20571;-79
2021/03/25 00:05:16;;;;;;;8.05;3.70;;;;;;;9.38;50.73;97599.13;5011694;28;20029;-79
2021/03/25 00:07:42;;;;;;;7.72;4.30;;;;;;;9.33;51.26;97596.41;5002485;28;20052;-79
2021/03/25 00:10:09;;;;;;;8.13;4.80;;;;;;;9.24;50.91;97594.38;4993363;28;20029;-79
2021/03/25 00:12:35;;;;;;;7.78;3.85;;;;;;;9.32;51.26;97594.03;4995656;28;20029;-79
2021/03/25 00:15:01;;;;;;;9.05;4.95;;;;;;;9.40;51.20;97595.50;4995401;28;20040;-79
2021/03/25 00:17:26;;;;;;;10.50;5.80;;;;;;;9.43;51.24;97593.25;5011013;28;20034;-79
2021/03/25 00:19:52;;;;;;;10.20;4.90;;;;;;;9.38;51.17;97587.94;5011042;28;20112;-79
2021/03/25 00:22:17;;;;;;;11.73;5.82;;;;;;;9.46;51.82;97590.19;5008181;28;20033;-79
2021/03/25 00:24:42;;;;;;;10.18;5.82;;;;;;;9.45;52.19;97580.81;4995091;28;20030;-79
2021/03/25 00:27:08;;;;;;;11.80;6.03;;;;;;;9.52;51.31;97578.88;5011341;28;20088;-79
2021/03/25 00:29:33;;;;;;;14.35;5.90;;;;;;;9.57;51.84;97581.59;5029031;28;20038;-79
2021/03/25 00:31:59;;;;;;;10.68;4.97;;;;;;;9.71;51.27;97586.56;5021379;28;20128;-79
2021/03/25 00:34:24;;;;;;;10.63;5.07;;;;;;;9.75;51.12;97580.69;4980339;28;20427;-79
2021/03/25 00:36:49;;;;;;;9.57;4.72;;;;;;;9.82;50.83;97579.75;5028504;28;20354;-79
2021/03/25 00:39:15;;;;;;;10.77;5.20;;;;;;;9.81;50.64;97576.38;5008306;28;20021;-79
2021/03/25 00:41:41;;;;;;;10.57;5.35;;;;;;;9.77;50.54;97569.25;5011467;28;20383;-79
2021/03/25 00:44:08;;;;;;;9.77;5.45;;;;;;;9.71;50.25;97570.97;5006232;28;20091;-79
2021/03/25 00:46:34;;;;;;;9.80;5.20;;;;;;;9.75;50.24;97570.28;5032083;28;20383;-79
2021/03/25 00:49:01;;;;;;;8.65;4.85;;;;;;;9.82;50.15;97562.34;5032327;28;20030;-79
2021/03/25 00:51:27;;;;;;;9.27;5.13;;;;;;;9.83;50.39;97553.50;5008682;28;20037;-78
2021/03/25 00:53:53;;;;;;;8.25;4.57;;;;;;;9.82;50.15;97554.56;4999408;28;20441;-79
2021/03/25 00:56:18;;;;;;;11.38;5.13;;;;;;;9.82;49.64;97557.16;5015360;28;20061;-79
2021/03/25 00:58:44;;;;;;;7.93;4.07;;;;;;;9.65;50.58;97564.09;5014822;28;20074;-79
2021/03/25 01:01:09;;;;;;;10.35;5.35;;;;;;;9.59;50.94;97560.56;5014478;28;20377;-78
2021/03/25 01:03:35;;;;;;;9.90;4.80;;;;;;;9.60;51.29;97556.19;4999144;28;20156;-79
2021/03/25 01:06:00;;;;;;;8.38;4.25;;;;;;;9.63;50.58;97555.69;4985886;28;20026;-79
2021/03/25 01:08:26;;;;;;;8.50;4.22;;;;;;;9.65;50.36;97559.66;5008278;28;20396;-79
2021/03/25 01:10:54;;;;;;;10.40;4.25;;;;;;;9.49;50.57;97552.56;5014960;28;20037;-79
2021/03/25 01:14:01;;;;;;;8.25;4.05;;;;;;;9.22;51.12;97552.22;4993876;28;20029;-79
2021/03/25 01:16:29;;;;;;;7.03;3.80;;;;;;;9.43;50.91;97553.47;5015852;28;20041;-79
2021/03/25 01:18:56;;;;;;;8.85;4.45;;;;;;;9.55;50.81;97552.44;4999079;28;20144;-79
2021/03/25 01:21:22;;;;;;;9.07;4.25;;;;;;;9.65;50.56;97546.66;5032809;28;20485;-79
2021/03/25 01:23:47;;;;;;;8.35;4.35;;;;;;;9.61;50.77;97550.72;5005867;28;20137;-79
2021/03/25 01:26:13;;;;;;;8.35;4.63;;;;;;;9.62;50.95;97549.72;4998838;28;20392;-79
2021/03/25 01:28:39;;;;;;;10.63;5.28;;;;;;;9.73;50.26;97542.91;4993476;28;20030;-79
2021/03/25 01:31:04;;;;;;;8.23;4.45;;;;;;;9.79;50.47;97536.81;5031046;28;20033;-79
2021/03/25 01:33:30;;;;;;;10.55;4.72;;;;;;;9.88;50.13;97534.63;4995630;28;20029;-79
2021/03/25 01:35:55;;;;;;;9.27;5.00;;;;;;;10.04;49.71;97525.31;5031604;28;20516;-79
2021/03/25 01:38:22;;;;;;;9.65;4.43;;;;;;;10.08;49.68;97535.03;5008721;28;20064;-79
2021/03/25 01:40:50;;;;;;;9.95;4.60;;;;;;;10.18;48.51;97534.44;5031137;28;20111;-78
2021/03/25 01:43:19;;;;;;;9.18;4.68;;;;;;;10.16;49.04;97533.88;4998319;28;20069;-79
2021/03/25 01:45:46;;;;;;;9.60;5.75;;;;;;;9.96;48.98;97517.88;5024785;28;20065;-79
2021/03/25 01:48:12;;;;;;;10.57;4.78;;;;;;;10.11;49.42;97523.38;5048012;28;20048;-79
2021/03/25 01:50:38;;;;;;;11.15;4.78;;;;;;;10.24;48.64;97515.25;5024875;28;20034;-79
2021/03/25 01:53:35;;;;;;;10.80;5.22;;;;;;;10.13;48.51;97513.53;5015208;28;20026;-79
2021/03/25 01:56:07;;;;;;;7.72;4.28;;;;;;;10.46;47.66;97504.22;5024685;28;20496;-79
2021/03/25 01:58:41;;;;;;;10.40;5.38;;;;;;;10.71;47.83;97505.66;4991137;28;20506;-79
2021/03/25 02:01:25;;;;;;;10.40;5.07;;;;;;;10.55;47.23;97502.78;5021972;28;20038;-79
2021/03/25 02:04:18;;;;;;;9.00;5.32;;;;;;;10.60;46.71;97497.69;5040954;22;20388;-77
2021/03/25 02:07:05;;;;;;;12.13;5.57;;;;;;;10.72;46.65;97502.03;5003501;28;20064;-77
2021/03/25 02:09:46;;;;;;;9.77;4.80;;;;;;;10.82;46.49;97499.59;5027988;28;20491;-76
2021/03/25 02:12:12;;;;;;;9.48;5.28;;;;;;;11.21;45.62;97500.41;5005970;28;20030;-77
2021/03/25 02:14:41;;;;;;;11.73;5.60;;;;;;;11.18;45.72;97495.66;5028815;28;20034;-77
2021/03/25 02:17:17;;;;;;;9.90;5.47;;;;;;;10.99;45.59;97491.75;5009360;28;20040;-77
2021/03/25 02:19:51;;;;;;;11.63;4.95;;;;;;;11.24;45.61;97491.31;5008937;28;20049;-77
2021/03/25 02:22:41;;;;;;;10.40;4.55;;;;;;;10.79;45.89;97484.44;5032763;28;20040;-77
2021/03/25 02:25:14;;;;;;;8.05;5.03;;;;;;;10.93;45.75;97487.50;5016253;28;20030;-77
2021/03/25 02:28:00;;;;;;;10.23;4.88;;;;;;;10.75;46.20;97488.53;5015734;28;20029;-77
2021/03/25 02:30:44;;;;;;;8.93;4.93;;;;;;;10.88;45.84;97475.16;5015710;28;20491;-77
2021/03/25 02:33:13;;;;;;;8.93;4.53;;;;;;;11.06;45.46;97480.13;5032958;28;20464;-77
2021/03/25 02:35:42;;;;;;;10.50;5.68;;;;;;;11.07;45.81;97488.75;5015549;28;20025;-77
2021/03/25 02:38:12;;;;;;;9.80;4.78;;;;;;;11.06;45.36;97474.91;5011338;28;20555;-76
2021/03/25 02:40:47;;;;;;;10.52;4.55;;;;;;;10.99;45.55;97487.31;5031352;28;20038;-77
2021/03/25 02:43:43;;;;;;;10.18;5.30;;;;;;;10.90;45.74;97480.97;4994591;28;20083;-77
2021/03/25 02:46:23;;;;;;;10.38;4.82;;;;;;;11.14;44.98;97485.94;5020591;28;20392;-77
2021/03/25 02:48:54;;;;;;;8.98;4.70;;;;;;;11.37;44.69;97482.38;5031976;28;20037;-77
2021/03/25 02:51:27;;;;;;;13.00;5.18;;;;;;;11.28;44.96;97479.38;5015082;28;20118;-77
2021/03/25 02:53:52;;;;;;;10.45;5.35;;;;;;;11.50;44.71;97473.38;5025500;28;20653;-77
2021/03/25 02:56:42;;;;;;;9.57;4.80;;;;;;;11.12;45.11;97475.00;5031879;28;20029;-77
2021/03/25 02:59:24;;;;;;;11.50;5.65;;;;;;;11.11;45.21;97473.44;5031667;28;20092;-77
2021/03/25 03:01:52;;;;;;;9.40;5.35;;;;;;;11.50;44.41;97473.38;5027171;28;20094;-77
2021/03/25 03:04:23;;;;;;;10.13;4.35;;;;;;;11.38;44.49;97471.69;5008937;28;20049;-77
2021/03/25 03:06:52;;;;;;;10.38;5.45;;;;;;;11.43;44.19;97466.53;4993811;28;20547;-77
2021/03/25 03:09:23;;;;;;;10.93;5.00;;;;;;;11.44;44.10;97465.50;5024724;28;20025;-77
2021/03/25 03:11:51;;;;;;;9.18;4.75;;;;;;;11.46;44.29;97469.69;5030664;28;20026;-77
2021/03/25 03:14:26;;;;;;;10.65;5.45;;;;;;;11.23;44.39;97479.31;5011084;28;20525;-77
2021/03/25 03:16:59;;;;;;;9.18;4.80;;;;;;;11.36;44.27;97462.53;5031195;28;20648;-77
2021/03/25 03:19:35;;;;;;;8.93;4.43;;;;;;;11.34;44.66;97475.03;5008235;28;20025;-77
2021/03/25 03:22:02;;;;;;;;;;;;;;;10.65;46.04;97469.09;5031271;28;20025;-77
2021/03/25 03:24:28;;;;;;;9.30;5.03;;;;;;;11.16;45.18;97465.69;5014527;28;19909;-77
2021/03/25 03:26:57;;;;;;;10.23;4.75;;;;;;;10.87;45.41;97463.19;5030652;28;20030;-77
2021/03/25 03:29:24;;;;;;;8.15;4.20;;;;;;;11.00;45.69;97468.06;5031563;28;20040;-77
2021/03/25 03:32:09;;;;;;;9.20;4.22;;;;;;;10.77;45.84;97463.81;5015446;28;20040;-77
2021/03/25 03:34:40;;;;;;;9.27;4.63;;;;;;;10.79;45.74;97460.97;5011798;28;20029;-77
2021/03/25 03:37:30;;;;;;;8.30;5.05;;;;;;;10.53;45.80;97467.63;5030486;28;20472;-77
2021/03/25 03:39:57;;;;;;;8.52;4.57;;;;;;;10.71;45.67;97459.59;5030012;28;20068;-77
2021/03/25 03:42:23;;;;;;;10.27;4.82;;;;;;;10.86;45.24;97465.03;5014074;28;20025;-77
2021/03/25 03:44:50;;;;;;;8.43;4.32;;;;;;;10.83;45.05;97457.66;5007817;28;20069;-77
2021/03/25 03:47:18;;;;;;;8.65;4.85;;;;;;;10.81;45.54;97461.53;4993318;28;20526;-77
2021/03/25 03:50:06;;;;;;;8.90;4.28;;;;;;;10.67;45.49;97467.06;4997636;28;20029;-77
2021/03/25 03:52:35;;;;;;;11.00;4.45;;;;;;;10.70;45.45;97462.41;5027098;28;20029;-77
2021/03/25 03:55:04;;;;;;;10.07;4.50;;;;;;;10.78;45.36;97464.59;5007064;28;20036;-77
2021/03/25 03:57:36;;;;;;;6.93;3.85;;;;;;;10.89;45.15;97466.34;5014887;28;20104;-77
2021/03/25 04:00:07;;;;;;;7.10;3.92;;;;;;;10.57;45.45;97464.28;5002297;28;20096;-77
2021/03/25 04:02:37;;;;;;;7.43;3.25;;;;;;;10.53;46.05;97463.19;5032394;28;20109;-77
2021/03/25 04:05:07;;;;;;;6.72;3.70;;;;;;;10.00;47.04;97464.38;5026341;28;20048;-77
2021/03/25 04:07:34;;;;;;;8.63;3.80;;;;;;;9.92;47.80;97462.91;4984708;28;20048;-77
2021/03/25 04:10:10;;;;;;;7.30;3.85;;;;;;;9.78;48.03;97461.63;5013756;28;20549;-76
2021/03/25 04:12:39;;;;;;;8.82;4.07;;;;;;;9.91;48.25;97461.34;5023381;28;20037;-77
2021/03/25 04:15:05;;;;;;;7.75;3.83;;;;;;;9.96;48.26;97460.66;5011759;28;20026;-77
2021/03/25 04:17:34;;;;;;;8.88;3.72;;;;;;;9.73;48.54;97460.50;5026392;28;20034;-77
2021/03/25 04:20:08;;;;;;;9.93;4.63;;;;;;;9.58;48.45;97465.41;5014592;28;20033;-77
2021/03/25 04:22:38;;;;;;;7.45;3.65;;;;;;;9.67;48.38;97458.81;5000818;28;20033;-77
2021/03/25 04:25:07;;;;;;;7.30;4.35;;;;;;;9.80;47.58;97460.38;5008479;28;20040;-77
2021/03/25 04:27:45;;;;;;;9.52;4.20;;;;;;;9.81;47.55;97461.94;5009891;28;20100;-77
2021/03/25 04:30:19;;;;;;;10.82;3.88;;;;;;;10.09;47.44;97465.56;5014768;28;20069;-77
2021/03/25 04:32:49;;;;;;;8.32;4.03;;;;;;;10.10;47.50;97462.72;5017615;28;20079;-77
2021/03/25 04:35:15;;;;;;;8.95;4.30;;;;;;;10.06;47.67;97466.03;5016028;28;20025;-77
2021/03/25 04:37:41;;;;;;;6.40;4.05;;;;;;;9.96;47.62;97465.88;5034251;28;20079;-77
2021/03/25 04:40:11;;;;;;;7.70;4.47;;;;;;;9.86;47.83;97466.47;5014691;28;20025;-77
2021/03/25 04:42:42;;;;;;;6.22;3.55;;;;;;;9.87;47.91;97461.03;5007733;28;20025;-76
2021/03/25 04:45:16;;;;;;;6.72;3.65;;;;;;;9.75;47.67;97468.09;5035348;28;20041;-77
2021/03/25 04:47:44;;;;;;;7.75;4.40;;;;;;;9.83;47.57;97469.50;5027073;28;20041;-77
2021/03/25 04:50:27;;;;;;;5.85;3.25;;;;;;;9.56;48.08;97465.66;5010487;28;20029;-77
2021/03/25 04:53:17;;;;;;;7.57;3.80;;;;;;;9.70;48.13;97470.59;5026750;28;20056;-77
2021/03/25 04:55:42;;;;;;;7.40;3.42;;;;;;;10.08;47.55;97461.41;5032340;28;20048;-76
2021/03/25 04:58:09;;;;;;;9.40;3.67;;;;;;;10.16;47.18;97462.81;5016288;28;20468;-77
2021/03/25 05:00:41;;;;;;;7.40;3.50;;;;;;;10.02;46.85;97462.31;5000101;28;20025;-77
2021/03/25 05:03:09;;;;;;;8.73;3.78;;;;;;;10.32;46.25;97456.88;5016136;28;20508;-77
2021/03/25 05:05:35;;;;;;;7.45;3.65;;;;;;;10.53;46.21;97458.00;5006384;28;20100;-77
2021/03/25 05:08:07;;;;;;;7.10;3.28;;;;;;;10.39;45.88;97457.50;4986088;28;20029;-77
2021/03/25 05:10:42;;;;;;;7.18;4.25;;;;;;;10.30;45.70;97457.09;4992890;28;20025;-76
2021/03/25 05:13:44;;;;;;;7.70;3.65;;;;;;;10.17;46.02;97459.19;4987851;28;20029;-77
2021/03/25 05:16:31;;;;;;;8.38;3.70;;;;;;;10.35;45.54;97464.22;4972934;28;20058;-77
2021/03/25 05:19:15;;;;;;;6.18;3.50;;;;;;;10.49;45.27;97468.09;4991436;28;20042;-77
2021/03/25 05:22:08;;;;;;;6.38;3.20;;;;;;;10.42;45.62;97466.69;4975840;28;20030;-76
2021/03/25 05:24:51;;;;;;;6.90;3.72;;;;;;;10.41;45.21;97468.47;4991646;28;20042;-77
2021/03/25 05:27:50;;;;;;;6.07;3.38;;;;;;;10.29;46.00;97465.91;4975761;28;20373;-76
2021/03/25 05:30:28;;;;;;;6.63;3.55;;;;;;;10.32;45.54;97466.50;4951424;28;20409;-77
2021/03/25 05:33:01;;;;;;;6.78;3.30;;;;;;;10.40;45.53;97461.72;4975707;28;20041;-77
2021/03/25 05:35:34;;;;;;;5.88;3.45;;;;;;;10.35;45.63;97463.41;4959362;28;20045;-77
2021/03/25 05:38:01;;;;;;;7.45;3.50;;;;;;;10.57;44.94;97464.28;4975295;28;20042;-77
2021/03/25 05:40:32;;;;;;;7.40;3.35;;;;;;;10.53;45.65;97467.63;4959241;28;20038;-77
2021/03/25 05:43:35;;;;;;;7.32;3.53;;;;;;;10.40;45.73;97472.13;4977843;28;20085;-77
2021/03/25 05:46:24;;;;;;;6.47;2.92;;;;;;;10.35;45.78;97460.81;4991909;28;20034;-77
2021/03/25 05:49:13;;;;;;;5.97;4.10;;;;;;;10.53;45.75;97472.84;4988353;28;20089;-77
2021/03/25 05:52:01;;;;;;;7.47;3.58;;;;;;;10.28;45.74;97472.16;4986346;28;20030;-77
2021/03/25 05:54:53;;;;;;;8.45;3.92;;;;;;;10.36;46.02;97472.81;5020550;28;20061;-77
2021/03/25 05:57:26;;;;;;;5.88;3.38;;;;;;;10.52;45.66;97476.44;5004891;28;20021;-77
2021/03/25 05:59:57;;;;;;;7.20;3.53;;;;;;;10.67;45.49;97464.44;5008833;28;20034;-77
2021/03/25 06:02:31;;;;;;;5.57;3.40;;;;;;;10.78;45.18;97469.81;5031809;28;20072;-77
2021/03/25 06:04:56;;;;;;;7.50;3.40;;;;;;;11.03;44.95;97475.38;5008264;28;20045;-77
2021/03/25 06:08:00;;;;;;;6.35;3.50;;;;;;;10.85;45.22;97480.88;4999749;28;20025;-77
2021/03/25 06:10:48;;;;;;;6.00;3.00;;;;;;;10.90;45.08;97488.78;5016416;28;20081;-77
2021/03/25 06:13:30;;;;;;;5.22;2.78;;;;;;;11.04;44.86;97484.78;5027058;28;20072;-77
2021/03/25 06:16:14;;;;;;;5.88;3.67;;;;;;;11.00;45.28;97488.09;5023303;28;20025;-77
2021/03/25 06:19:00;;;;;;;6.22;3.50;;;;;;;11.26;45.51;97494.47;5032007;28;20038;-77
2021/03/25 06:21:41;;;;;;;5.95;2.95;;;;;;;11.35;45.20;97493.03;5027390;28;20037;-77
2021/03/25 06:24:27;;;;;;;4.90;3.10;;;;;;;11.56;44.75;97493.28;5033020;28;20032;-77
2021/03/25 06:27:20;;;;;;;7.40;3.70;;;;;;;11.72;44.42;97505.50;5032337;28;20021;-77
2021/03/25 06:29:51;;;;;;;7.60;3.25;;;;;;;11.77;44.18;97500.34;5012143;28;20029;-77
2021/03/25 06:32:24;;;;;;;8.10;3.90;;;;;;;11.84;43.95;97504.56;5010993;28;20045;-77
2021/03/25 06:35:10;;;;;;;7.10;3.72;;;;;;;11.97;43.86;97501.59;5014747;28;20134;-77
2021/03/25 06:37:41;;;;;;;7.90;3.58;;;;;;;12.21;42.76;97511.78;5016227;28;20118;-77
2021/03/25 06:40:16;;;;;;;6.47;3.85;;;;;;;12.58;42.15;97513.66;5011726;28;20033;-77
2021/03/25 06:42:50;;;;;;;5.57;3.33;;;;;;;12.51;43.26;97511.28;5032720;28;20044;-77
2021/03/25 06:45:21;;;;;;;6.72;3.22;;;;;;;12.62;42.47;97518.16;5009067;28;20041;-77
2021/03/25 06:48:04;;;;;;;7.13;3.83;;;;;;;12.72;42.47;97525.28;4999442;28;20162;-77
2021/03/25 06:50:50;;;;;;;7.68;3.70;;;;;;;12.81;42.64;97525.63;5014983;28;20038;-77
2021/03/25 06:53:30;;;;;;;7.78;3.83;;;;;;;12.79;42.22;97530.31;5028300;28;20038;-77
2021/03/25 06:55:59;;;;;;;7.75;3.70;;;;;;;12.97;42.42;97531.75;5009783;28;20022;-77
2021/03/25 06:58:52;;;;;;;8.60;5.07;;;;;;;12.68;42.86;97532.03;4995071;28;20485;-77
2021/03/25 07:01:27;;;;;;;13.05;6.15;;;;;;;12.95;41.68;97536.44;5023295;28;20316;-78
2021/03/25 07:03:55;;;;;;;15.90;8.57;;;;;;;12.89;42.49;97533.78;5006242;28;20823;-77
2021/03/25 07:06:22;;;;;;;13.57;8.40;;;;;;;13.06;41.92;97536.25;4990786;28;20069;-77
2021/03/25 07:08:48;;;;;;;11.27;5.93;;;;;;;13.03;41.93;97538.59;5010537;28;20037;-77
2021/03/25 07:11:18;;;;;;;6.57;4.50;;;;;;;12.97;42.33;97539.56;5006916;28;20430;-77
2021/03/25 07:13:48;;;;;;;6.72;4.13;;;;;;;12.99;42.12;97548.75;5012347;28;20040;-77
2021/03/25 07:16:14;;;;;;;7.80;3.97;;;;;;;13.23;41.73;97543.97;4995851;28;20118;-77
2021/03/25 07:18:55;;;;;;;6.70;3.97;;;;;;;12.75;42.79;97550.94;5015627;28;20077;-77
2021/03/25 07:21:41;;;;;;;8.38;3.97;;;;;;;12.76;42.53;97555.09;5001338;28;20036;-77
2021/03/25 07:24:23;;;;;;;6.90;3.42;;;;;;;13.04;41.87;97555.84;5015718;28;20029;-77
2021/03/25 07:26:55;;;;;;;5.03;3.40;;;;;;;13.09;42.89;97561.91;5023780;28;20237;-78
2021/03/25 07:29:24;;;;;;;7.10;3.70;;;;;;;13.43;42.02;97560.81;5002221;28;20053;-78
2021/03/25 07:31:54;;;;;;;5.85;3.25;;;;;;;13.52;41.50;97561.94;5001012;28;20041;-78
2021/03/25 07:34:36;;;;;;;6.82;4.20;;;;;;;13.31;42.86;97576.69;4985540;28;20388;-77
2021/03/25 07:37:04;;;;;;;7.30;4.10;;;;;;;13.59;41.88;97566.94;5017351;28;20459;-77
2021/03/25 07:39:33;;;;;;;6.60;4.03;;;;;;;13.44;41.59;97568.44;5022868;28;20400;-78
2021/03/25 07:41:59;;;;;;;8.70;4.70;;;;;;;13.47;41.92;97565.31;5010200;28;20253;-77
2021/03/25 07:44:25;;;;;;;7.00;4.22;;;;;;;13.66;41.15;97570.13;4992951;28;20036;-78
2021/03/25 07:46:56;;;;;;;6.22;3.80;;;;;;;13.56;41.38;97567.47;5026421;28;20033;-78
2021/03/25 07:49:24;;;;;;;7.93;4.10;;;;;;;13.91;41.50;97568.66;5008435;28;20627;-78
2021/03/25 07:51:51;;;;;;;8.57;4.40;;;;;;;14.04;41.89;97568.97;5033131;28;20089;-77
2021/03/25 07:54:25;;;;;;;8.20;4.45;;;;;;;14.00;40.40;97564.50;5008473;28;20700;-76
2021/03/25 07:57:02;;;;;;;8.68;5.25;;;;;;;14.17;40.99;97570.34;5026325;28;20022;-77
2021/03/25 07:59:44;;;;;;;8.75;5.38;;;;;;;14.31;39.86;97572.44;5015757;28;20041;-77
2021/03/25 08:02:33;;;;;;;11.15;4.93;;;;;;;14.45;40.09;97573.53;5030398;28;20063;-77
2021/03/25 08:05:22;;;;;;;8.02;5.03;;;;;;;14.30;41.03;97570.88;5008081;28;20492;-78
2021/03/25 08:07:50;;;;;;;8.63;4.93;;;;;;;14.51;40.14;97579.56;5013302;28;20586;-77
2021/03/25 08:10:33;;;;;;;10.80;5.75;;;;;;;14.70;39.72;97574.63;5017206;28;20033;-78
2021/03/25 08:13:11;;;;;;;11.82;5.60;;;;;;;15.02;39.47;97576.25;5010274;28;20523;-77
2021/03/25 08:15:40;;;;;;;12.52;5.90;;;;;;;15.34;38.29;97573.31;5007385;28;20500;-77
2021/03/25 08:18:50;;;;;;;10.50;6.28;;;;;;;14.79;39.64;97575.72;5009037;28;20033;-77
2021/03/25 08:21:18;;;;;;;9.65;5.75;;;;;;;15.67;38.48;97577.19;5012720;28;20280;-77
2021/03/25 08:23:57;;;;;;;11.52;6.15;;;;;;;15.23;38.53;97575.16;5028979;28;20037;-77
2021/03/25 08:26:29;;;;;;;11.00;6.07;;;;;;;15.59;39.02;97574.31;5019212;28;20041;-77
2021/03/25 08:29:15;;;;;;;10.45;6.15;;;;;;;15.69;38.75;97567.19;5010765;28;20137;-77
2021/03/25 08:32:08;;;;;;;14.48;6.72;;;;;;;15.90;38.40;97565.31;5011456;28;20137;-77
2021/03/25 08:34:40;;;;;;;15.43;7.28;;;;;;;16.05;37.50;97567.09;5011914;28;20049;-77
2021/03/25 08:37:08;;;;;;;12.35;6.72;;;;;;;16.18;38.55;97570.97;5020230;28;20270;-78
2021/03/25 08:39:53;;;;;;;13.32;7.95;;;;;;;15.93;37.65;97568.47;5025906;28;20030;-78
2021/03/25 08:42:25;;;;;;;13.52;8.35;;;;;;;16.25;38.15;97573.31;5007135;28;20029;-77
2021/03/25 08:45:13;;;;;;;14.38;7.93;;;;;;;16.16;37.66;97567.84;4963977;28;20334;-77
2021/03/25 08:48:04;;;;;;;16.40;7.78;;;;;;;16.04;38.18;97569.97;5007189;28;20520;-78
2021/03/25 08:50:34;;;;;;;17.08;8.18;;;;;;;16.41;37.31;97572.16;4993162;28;20034;-78
2021/03/25 08:53:13;;;;;;;13.18;7.13;;;;;;;16.37;37.90;97565.88;5008568;28;20026;-78
2021/03/25 08:55:38;;;;;;;15.73;9.30;;;;;;;16.52;37.93;97572.91;5008517;28;20388;-78
2021/03/25 08:58:13;;;;;;;13.80;8.27;;;;;;;16.62;37.03;97580.72;5012005;28;20029;-78
2021/03/25 09:00:40;;;;;;;17.90;9.13;;;;;;;16.76;37.02;97574.81;5011925;28;20035;-78
2021/03/25 09:03:19;;;;;;;15.05;9.80;;;;;;;16.63;36.88;97571.75;5004596;28;20050;-78
2021/03/25 09:05:55;;;;;;;18.65;10.10;;;;;;;16.71;36.89;97577.47;5001978;28;20045;-78
2021/03/25 09:08:21;;;;;;;16.63;10.13;;;;;;;16.94;37.15;97571.56;5022658;28;20018;-78
2021/03/25 09:10:52;;;;;;;18.58;9.73;;;;;;;16.78;36.59;97576.13;5000368;28;20487;-78
2021/03/25 09:13:25;;;;;;;19.50;11.38;;;;;;;16.98;36.72;97574.41;5006002;28;20042;-77
2021/03/25 09:15:53;;;;;;;19.48;11.60;;;;;;;17.08;36.70;97576.97;4998302;28;20042;-78
2021/03/25 09:18:22;;;;;;;19.45;11.30;;;;;;;17.13;36.60;97584.03;4983002;28;20022;-78
2021/03/25 09:20:51;;;;;;;22.33;12.52;;;;;;;17.20;36.52;97580.03;5003313;28;20117;-78
2021/03/25 09:23:28;;;;;;;21.55;11.63;;;;;;;16.89;38.50;97590.00;5001130;28;20033;-78
2021/03/25 09:25:54;;;;;;;21.38;11.93;;;;;;;17.25;37.73;97587.06;5015402;28;20045;-78
2021/03/25 09:28:20;;;;;;;17.48;10.35;;;;;;;17.76;36.18;97585.78;5026340;28;20436;-78
2021/03/25 09:31:08;;;;;;;19.15;12.05;;;;;;;17.25;36.79;97592.34;5005457;28;20096;-78
2021/03/25 09:33:49;;;;;;;20.05;11.80;;;;;;;17.62;36.30;97590.94;5025918;28;20036;-78
2021/03/25 09:36:17;;;;;;;19.77;12.07;;;;;;;17.64;36.31;97588.81;5017453;28;20025;-77
2021/03/25 09:38:58;;;;;;;22.33;12.85;;;;;;;17.61;35.83;97592.00;5025598;28;20039;-78
2021/03/25 09:41:32;;;;;;;21.95;13.82;;;;;;;17.87;36.37;97582.00;5036897;28;20040;-78
2021/03/25 09:44:20;;;;;;;23.20;13.43;;;;;;;17.86;36.89;97590.16;5024144;28;20045;-77
2021/03/25 09:46:49;;;;;;;22.15;11.70;;;;;;;18.49;35.80;97591.75;5023312;28;20092;-77
2021/03/25 09:49:18;;;;;;;22.77;12.65;;;;;;;18.58;35.45;97590.06;5009928;28;20025;-77
2021/03/25 09:51:43;;;;;;;22.77;13.52;;;;;;;18.55;35.40;97585.34;5034099;28;20033;-78
2021/03/25 09:54:26;;;;;;;23.80;14.13;;;;;;;18.32;35.45;97597.53;5008142;28;20029;-78
2021/03/25 09:57:29;;;;;;;22.35;13.27;;;;;;;18.28;35.65;97596.53;4998357;28;20038;-78
2021/03/25 10:00:00;;;;;;;23.60;14.23;;;;;;;18.77;35.26;97587.41;5009041;28;20097;-77
2021/03/25 10:02:40;;;;;;;23.23;13.43;;;;;;;18.57;36.00;97592.97;5010810;28;20029;-78
2021/03/25 10:05:36;;;;;;;23.38;14.02;;;;;;;18.51;37.23;97592.28;5004380;28;20073;-78
2021/03/25 10:08:15;;;;;;;25.27;13.88;;;;;;;18.83;35.26;97591.56;5021138;28;20041;-78
2021/03/25 10:10:46;;;;;;;23.63;13.90;;;;;;;19.01;34.07;97594.44;5011148;28;20540;-78
2021/03/25 10:13:16;;;;;;;24.80;15.05;;;;;;;19.25;34.85;97587.16;5006310;28;20040;-77
2021/03/25 10:15:55;;;;;;;23.90;14.35;;;;;;;18.82;34.88;97592.63;5014035;28;20048;-78
2021/03/25 10:18:24;;;;;;;24.30;14.07;;;;;;;19.08;34.80;97589.56;5012399;28;20481;-78
2021/03/25 10:21:03;;;;;;;26.80;15.88;;;;;;;18.88;35.94;97588.84;5014125;28;20042;-78
2021/03/25 10:23:49;;;;;;;28.42;15.55;;;;;;;19.03;34.99;97584.38;4998281;28;20037;-77
2021/03/25 10:26:41;;;;;;;24.63;14.57;;;;;;;18.79;35.99;97584.47;5011784;28;20068;-78
2021/03/25 10:29:07;;;;;;;24.85;15.23;;;;;;;19.30;34.26;97585.53;5011523;28;20037;-77
2021/03/25 10:31:35;;;;;;;25.00;15.40;;;;;;;19.27;35.07;97594.81;4996745;28;20034;-78
2021/03/25 10:34:13;;;;;;;26.80;16.15;;;;;;;18.76;34.33;97585.03;5008417;28;20124;-77
2021/03/25 10:36:45;;;;;;;26.30;15.80;;;;;;;18.23;37.34;97594.75;5026950;28;20079;-78
2021/03/25 10:39:23;;;;;;;24.33;13.85;;;;;;;18.33;36.17;97585.91;4991607;28;20670;-77
2021/03/25 10:41:48;;;;;;;24.27;13.85;;;;;;;18.99;36.87;97599.25;5010784;28;20095;-77
2021/03/25 10:44:23;;;;;;;22.40;13.77;;;;;;;18.55;36.82;97595.88;5009131;28;20060;-78
2021/03/25 10:46:49;;;;;;;23.42;14.73;;;;;;;19.36;34.96;97592.28;5025467;28;20112;-77
2021/03/25 10:49:24;;;;;;;22.13;14.35;;;;;;;19.39;34.21;97583.78;5002709;28;20534;-77
2021/03/25 10:51:50;;;;;;;19.40;13.73;;;;;;;19.62;34.61;97579.38;4991335;28;20029;-78
2021/03/25 10:54:36;;;;;;;23.75;13.63;;;;;;;19.26;35.16;97586.13;5017114;28;20034;-78
2021/03/25 10:57:07;;;;;;;20.60;13.13;;;;;;;19.82;34.13;97578.25;4990901;28;20026;-78
2021/03/25 10:59:33;;;;;;;22.85;13.13;;;;;;;20.43;34.49;97580.72;5028371;28;20368;-77
2021/03/25 11:02:01;;;;;;;25.00;13.65;;;;;;;20.58;32.75;97572.44;5008030;28;20033;-78
2021/03/25 11:04:32;;;;;;;21.48;13.05;;;;;;;20.67;32.39;97578.59;5006261;28;20061;-77
2021/03/25 11:07:19;;;;;;;22.77;14.20;;;;;;;20.19;33.69;97576.47;4986164;28;20100;-78
2021/03/25 11:09:54;;;;;;;22.98;13.95;;;;;;;20.46;34.93;97577.44;5020944;28;20040;-77
2021/03/25 11:12:20;;;;;;;;;;;;;;;20.58;33.11;97577.72;5017365;28;20036;-78
2021/03/25 11:14:50;;;;;;;19.38;12.20;;;;;;;20.90;32.47;97565.34;5009453;28;19944;-77
2021/03/25 11:17:37;;;;;;;18.40;11.75;;;;;;;20.91;32.85;97578.28;4994291;28;20044;-78
2021/03/25 11:20:07;;;;;;;19.65;11.60;;;;;;;21.17;31.09;97580.31;5023241;28;20492;-77
2021/03/25 11:22:33;;;;;;;18.25;11.60;;;;;;;21.06;30.62;97587.75;5028357;28;20029;-77
2021/03/25 11:25:04;;;;;;;19.45;11.98;;;;;;;20.88;30.71;97576.25;5013806;28;20041;-78
2021/03/25 11:27:29;;;;;;;17.92;12.40;;;;;;;20.84;30.76;97577.16;4986113;28;20452;-78
2021/03/25 11:30:02;;;;;;;17.73;12.07;;;;;;;20.34;32.00;97578.78;5007519;28;20124;-78
2021/03/25 11:32:37;;;;;;;19.33;11.75;;;;;;;20.75;31.64;97571.78;5020949;28;20038;-77
2021/03/25 11:35:40;;;;;;;19.42;12.23;;;;;;;21.12;30.71;97570.63;5014392;28;20041;-79
2021/03/25 11:38:42;;;;;;;18.80;11.98;;;;;;;21.61;30.25;97570.72;4967026;28;20022;-79
2021/03/25 11:41:17;;;;;;;18.67;12.52;;;;;;;22.03;30.29;97565.06;4980252;28;20346;-78
2021/03/25 11:43:51;;;;;;;18.08;11.35;;;;;;;22.32;31.27;97567.16;4981080;28;20053;-78
2021/03/25 11:46:30;;;;;;;17.92;11.57;;;;;;;21.98;29.88;97563.34;4987995;28;20038;-78
2021/03/25 11:49:10;;;;;;;18.13;12.25;;;;;;;21.70;31.23;97560.16;4968599;28;20042;-78
2021/03/25 11:51:39;;;;;;;18.92;12.75;;;;;;;22.41;30.92;97560.00;5000579;28;20049;-77
2021/03/25 11:54:26;;;;;;;19.45;11.60;;;;;;;21.93;29.78;97562.72;5003847;28;20041;-78
2021/03/25 11:56:58;;;;;;;18.23;12.45;;;;;;;22.02;30.18;97555.53;4985834;28;20034;-78
2021/03/25 11:59:27;;;;;;;18.50;12.40;;;;;;;21.87;28.64;97552.25;4984387;28;20042;-77
2021/03/25 12:02:21;;;;;;;16.88;11.27;;;;;;;21.55;29.55;97564.00;4989073;28;20232;-78